createdAt,value
2022-11-29T00:02:02.726Z,3.93
2022-11-29T00:04:29.176Z,3.90
2022-11-29T00:06:55.539Z,3.94
2022-11-29T00:09:21.864Z,3.86
2022-11-29T00:12:06.680Z,3.88
2022-11-29T00:14:33.075Z,3.86
2022-11-29T00:17:02.186Z,3.88
2022-11-29T00:19:29.274Z,3.90
2022-11-29T00:21:55.698Z,3.82
2022-11-29T00:24:22.273Z,3.80
2022-11-29T00:26:49.752Z,3.84
2022-11-29T00:29:22.039Z,3.81
2022-11-29T00:31:48.504Z,3.90
2022-11-29T00:34:14.885Z,3.86
2022-11-29T00:36:41.304Z,3.92
2022-11-29T00:39:11.905Z,3.85
2022-11-29T00:41:38.892Z,3.86
2022-11-29T00:44:06.334Z,3.91
2022-11-29T00:46:32.660Z,3.92
2022-11-29T00:48:59.004Z,3.86
2022-11-29T00:51:25.391Z,3.79
2022-11-29T00:53:51.816Z,3.82
2022-11-29T00:56:18.232Z,3.81
2022-11-29T00:58:44.608Z,3.84
2022-11-29T01:01:12.362Z,3.88
2022-11-29T01:03:38.952Z,3.84
2022-11-29T01:06:11.799Z,3.77
2022-11-29T01:08:41.410Z,3.87
2022-11-29T01:11:15.412Z,3.81
2022-11-29T01:13:42.441Z,3.80
2022-11-29T01:16:08.897Z,3.85
2022-11-29T01:18:35.723Z,3.74
2022-11-29T01:21:03.764Z,3.54
2022-11-29T01:23:30.562Z,3.45
2022-11-29T01:26:01.750Z,3.62
2022-11-29T01:28:28.390Z,3.54
2022-11-29T01:30:54.831Z,3.63
2022-11-29T01:33:21.736Z,3.67
2022-11-29T01:35:49.249Z,3.68
2022-11-29T01:38:15.591Z,3.62
2022-11-29T01:40:42.388Z,3.61
2022-11-29T01:43:18.305Z,3.61
2022-11-29T01:45:45.036Z,3.64
2022-11-29T01:48:13.448Z,3.61
2022-11-29T01:50:40.923Z,3.59
2022-11-29T01:53:12.918Z,3.70
2022-11-29T01:55:40.681Z,3.62
2022-11-29T01:58:08.378Z,3.53
2022-11-29T02:00:34.972Z,3.68
2022-11-29T02:03:12.443Z,3.59
2022-11-29T02:05:41.351Z,3.47
2022-11-29T02:08:11.359Z,3.42
2022-11-29T02:10:47.512Z,3.54
2022-11-29T02:13:18.963Z,3.54
2022-11-29T02:15:54.012Z,3.49
2022-11-29T02:18:43.766Z,3.46
2022-11-29T02:21:10.149Z,3.39
2022-11-29T02:23:55.058Z,3.41
2022-11-29T02:26:40.264Z,3.55
2022-11-29T02:29:14.964Z,3.46
2022-11-29T02:32:00.035Z,3.42
2022-11-29T02:34:49.656Z,3.50
2022-11-29T02:37:15.962Z,3.35
2022-11-29T02:40:06.932Z,3.47
2022-11-29T02:42:56.588Z,3.37
2022-11-29T02:45:42.223Z,3.39
2022-11-29T02:48:27.786Z,3.45
2022-11-29T02:51:17.658Z,3.32
2022-11-29T02:54:07.114Z,3.34
2022-11-29T02:56:52.274Z,3.37
2022-11-29T02:59:18.574Z,3.37
2022-11-29T03:01:44.957Z,3.42
2022-11-29T03:04:22.688Z,3.37
2022-11-29T03:07:13.460Z,3.40
2022-11-29T03:10:02.949Z,3.52
2022-11-29T03:12:35.127Z,3.54
2022-11-29T03:15:07.316Z,3.60
2022-11-29T03:17:37.520Z,3.59
2022-11-29T03:20:13.908Z,3.54
2022-11-29T03:22:47.083Z,3.43
2022-11-29T03:25:19.399Z,3.44
2022-11-29T03:27:55.590Z,3.38
2022-11-29T03:30:25.139Z,3.56
2022-11-29T03:32:57.519Z,3.56
2022-11-29T03:35:35.172Z,3.49
2022-11-29T03:38:20.247Z,3.47
2022-11-29T03:40:56.026Z,3.31
2022-11-29T03:43:26.473Z,3.55
2022-11-29T03:45:58.498Z,3.50
2022-11-29T03:48:24.848Z,3.51
2022-11-29T03:50:56.479Z,3.45
2022-11-29T03:53:22.766Z,3.39
2022-11-29T03:55:52.564Z,3.52
2022-11-29T03:58:18.855Z,3.55
2022-11-29T04:00:58.036Z,3.48
2022-11-29T04:03:42.470Z,3.37
2022-11-29T04:06:08.768Z,3.47
2022-11-29T04:08:53.336Z,3.48
2022-11-29T04:11:54.688Z,3.52
2022-11-29T04:14:27.233Z,3.66
2022-11-29T04:17:12.133Z,3.54
2022-11-29T04:19:41.224Z,3.47
2022-11-29T04:22:28.337Z,3.44
2022-11-29T04:25:13.424Z,3.45
2022-11-29T04:27:46.223Z,3.60
2022-11-29T04:30:22.662Z,3.56
2022-11-29T04:32:52.064Z,3.52
2022-11-29T04:35:31.496Z,3.57
2022-11-29T04:38:14.818Z,3.53
2022-11-29T04:40:53.052Z,3.53
2022-11-29T04:43:34.572Z,3.49
2022-11-29T04:46:00.905Z,3.50
2022-11-29T04:48:42.728Z,3.47
2022-11-29T04:51:35.158Z,3.53
2022-11-29T04:54:13.398Z,3.53
2022-11-29T04:56:45.360Z,3.54
2022-11-29T04:59:34.362Z,3.58
2022-11-29T05:02:00.906Z,3.65
2022-11-29T05:04:44.055Z,3.64
2022-11-29T05:07:10.668Z,3.72
2022-11-29T05:09:44.434Z,3.74
2022-11-29T05:12:29.556Z,3.68
2022-11-29T05:15:14.533Z,3.72
2022-11-29T05:17:42.375Z,3.57
2022-11-29T05:20:34.896Z,3.58
2022-11-29T05:23:13.564Z,3.75
2022-11-29T05:25:39.950Z,3.72
2022-11-29T05:28:10.364Z,3.65
2022-11-29T05:30:59.048Z,3.66
2022-11-29T05:33:44.126Z,3.70
2022-11-29T05:36:19.585Z,3.76
2022-11-29T05:38:46.063Z,3.70
2022-11-29T05:41:18.767Z,3.71
2022-11-29T05:43:45.556Z,3.71
2022-11-29T05:46:21.015Z,3.75
2022-11-29T05:49:07.087Z,3.68
2022-11-29T05:51:48.516Z,3.71
2022-11-29T05:54:28.034Z,3.73
2022-11-29T05:56:54.418Z,3.70
2022-11-29T05:59:26.194Z,3.67
2022-11-29T06:01:57.434Z,3.72
2022-11-29T06:04:45.653Z,3.64
2022-11-29T06:07:17.843Z,3.77
2022-11-29T06:09:44.171Z,3.78
2022-11-29T06:12:21.291Z,3.76
2022-11-29T06:14:55.290Z,3.65
2022-11-29T06:17:34.357Z,3.68
2022-11-29T06:20:04.546Z,3.68
2022-11-29T06:22:50.375Z,3.65
2022-11-29T06:25:28.958Z,3.72
2022-11-29T06:28:06.613Z,3.71
2022-11-29T06:30:52.354Z,3.64
2022-11-29T06:33:22.647Z,3.68
2022-11-29T06:35:57.943Z,3.61
2022-11-29T06:38:29.299Z,3.58
2022-11-29T06:41:01.565Z,3.62
2022-11-29T06:43:29.061Z,3.71
2022-11-29T06:46:09.933Z,3.67
2022-11-29T06:48:43.047Z,3.67
2022-11-29T06:51:17.670Z,3.67
2022-11-29T06:53:51.606Z,3.66
2022-11-29T06:56:24.100Z,3.86
2022-11-29T06:59:05.459Z,3.87
2022-11-29T07:01:34.618Z,3.70
2022-11-29T07:04:00.959Z,3.94
2022-11-29T07:06:28.427Z,3.75
2022-11-29T07:08:56.986Z,3.61
2022-11-29T07:11:23.463Z,3.66
2022-11-29T07:13:50.139Z,3.71
2022-11-29T07:16:31.857Z,3.71
2022-11-29T07:19:30.367Z,3.68
2022-11-29T07:21:59.418Z,3.77
2022-11-29T07:24:31.871Z,3.57
2022-11-29T07:27:15.635Z,3.75
2022-11-29T07:29:41.948Z,3.77
2022-11-29T07:32:14.908Z,3.93
2022-11-29T07:34:41.345Z,3.78
2022-11-29T07:37:07.943Z,3.73
2022-11-29T07:39:37.012Z,3.79
2022-11-29T07:42:22.246Z,3.84
2022-11-29T07:44:55.634Z,3.87
2022-11-29T07:47:23.075Z,3.93
2022-11-29T07:49:49.380Z,3.81
2022-11-29T07:52:21.879Z,3.88
2022-11-29T07:54:48.418Z,3.87
2022-11-29T07:57:14.880Z,3.78
2022-11-29T07:59:41.374Z,3.87
2022-11-29T08:02:11.661Z,3.88
2022-11-29T08:04:44.662Z,3.97
2022-11-29T08:07:11.425Z,3.98
2022-11-29T08:09:37.791Z,3.98
2022-11-29T08:12:04.606Z,4.04
2022-11-29T08:14:31.799Z,4.01
2022-11-29T08:16:58.102Z,4.05
2022-11-29T08:19:24.838Z,4.05
2022-11-29T08:21:52.193Z,4.04
2022-11-29T08:24:18.518Z,4.09
2022-11-29T08:26:44.831Z,4.02
2022-11-29T08:29:19.117Z,4.04
2022-11-29T08:31:45.750Z,3.99
2022-11-29T08:34:12.116Z,4.07
2022-11-29T08:36:38.450Z,4.08
2022-11-29T08:39:09.297Z,4.11
2022-11-29T08:41:35.784Z,4.07
2022-11-29T08:44:02.181Z,4.15
2022-11-29T08:46:48.485Z,4.06
2022-11-29T08:49:14.894Z,4.11
2022-11-29T08:51:41.233Z,4.11
2022-11-29T08:54:07.636Z,4.18
2022-11-29T08:59:23.113Z,4.23
2022-11-29T09:01:49.541Z,4.17
2022-11-29T09:04:17.075Z,4.17
2022-11-29T09:06:45.473Z,4.30
2022-11-29T09:09:11.787Z,4.35
2022-11-29T09:11:38.152Z,4.43
2022-11-29T09:14:05.758Z,4.23
2022-11-29T09:16:33.828Z,4.35
2022-11-29T09:19:00.533Z,4.36
2022-11-29T09:21:27.692Z,4.39
2022-11-29T09:23:58.875Z,4.33
2022-11-29T09:26:29.384Z,4.31
2022-11-29T09:28:57.887Z,4.37
2022-11-29T09:31:24.469Z,4.37
2022-11-29T09:33:50.986Z,4.41
2022-11-29T09:36:21.572Z,4.48
2022-11-29T09:38:51.741Z,4.49
2022-11-29T09:41:32.789Z,4.50
2022-11-29T09:44:02.248Z,4.66
2022-11-29T09:46:40.586Z,4.54
2022-11-29T09:49:42.346Z,4.47
2022-11-29T09:52:17.523Z,4.57
2022-11-29T09:54:47.176Z,4.63
2022-11-29T09:57:15.094Z,4.66
2022-11-29T09:59:47.862Z,4.65
2022-11-29T10:02:21.409Z,4.63
2022-11-29T10:04:54.755Z,4.64
2022-11-29T10:07:23.359Z,4.70
2022-11-29T10:09:56.467Z,4.52
2022-11-29T10:12:22.756Z,4.72
2022-11-29T10:14:56.344Z,4.79
2022-11-29T10:17:55.195Z,4.63
2022-11-29T10:20:23.846Z,4.68
2022-11-29T10:23:22.703Z,4.66
2022-11-29T10:25:51.050Z,4.76
2022-11-29T10:28:20.011Z,4.76
2022-11-29T10:30:46.592Z,4.94
2022-11-29T10:33:34.384Z,4.64
2022-11-29T10:36:04.146Z,4.60
2022-11-29T10:38:34.454Z,4.72
2022-11-29T10:41:08.762Z,4.86
2022-11-29T10:43:37.284Z,4.84
2022-11-29T10:46:04.806Z,4.77
2022-11-29T10:48:33.412Z,4.75
2022-11-29T10:51:00.564Z,4.76
2022-11-29T10:53:36.498Z,4.85
2022-11-29T10:56:07.444Z,4.95
2022-11-29T10:58:34.017Z,4.92
2022-11-29T11:01:07.005Z,4.93
2022-11-29T11:03:37.435Z,4.91
2022-11-29T11:06:09.464Z,4.95
2022-11-29T11:08:36.927Z,4.96
2022-11-29T11:11:05.151Z,4.97
2022-11-29T11:13:32.159Z,4.85
2022-11-29T11:16:07.068Z,5.12
2022-11-29T11:18:33.479Z,5.08
2022-11-29T11:21:01.980Z,5.09
2022-11-29T11:23:42.798Z,5.19
2022-11-29T11:26:11.318Z,5.11
2022-11-29T11:28:46.971Z,5.24
2022-11-29T11:31:13.668Z,5.28
2022-11-29T11:33:40.026Z,5.12
2022-11-29T11:36:25.777Z,5.13
2022-11-29T11:38:56.490Z,5.12
2022-11-29T11:41:45.633Z,5.24
2022-11-29T11:47:18.146Z,5.18
2022-11-29T11:49:52.547Z,5.22
2022-11-29T11:52:27.853Z,5.21
2022-11-29T11:54:58.847Z,5.22
2022-11-29T11:57:27.834Z,5.19
2022-11-29T11:59:55.227Z,5.36
2022-11-29T12:02:27.255Z,5.33
2022-11-29T12:05:02.160Z,5.31
2022-11-29T12:08:06.339Z,5.20
2022-11-29T12:10:27.628Z,5.18
2022-11-29T12:12:56.145Z,5.23
2022-11-29T12:15:25.288Z,5.22
2022-11-29T12:17:56.710Z,5.27
2022-11-29T12:20:41.907Z,5.41
2022-11-29T12:23:14.428Z,5.40
2022-11-29T12:25:45.871Z,5.39
2022-11-29T12:28:17.183Z,5.38
2022-11-29T12:30:49.309Z,5.36
2022-11-29T12:33:26.925Z,5.36
2022-11-29T12:35:54.311Z,5.39
2022-11-29T12:38:20.627Z,5.25
2022-11-29T12:40:46.935Z,5.34
2022-11-29T12:43:39.565Z,5.33
2022-11-29T12:46:11.955Z,5.27
2022-11-29T12:48:57.093Z,5.41
2022-11-29T12:51:58.932Z,5.38
2022-11-29T12:54:28.276Z,5.33
2022-11-29T12:57:08.010Z,5.40
2022-11-29T13:00:00.858Z,5.30
2022-11-29T13:02:34.452Z,5.35
2022-11-29T13:05:12.542Z,5.45
2022-11-29T13:07:59.569Z,5.60
2022-11-29T13:10:28.704Z,5.56
2022-11-29T13:13:17.507Z,5.57
2022-11-29T13:15:52.064Z,5.59
2022-11-29T13:18:25.996Z,5.62
2022-11-29T13:21:13.222Z,5.70
2022-11-29T13:24:13.946Z,5.68
2022-11-29T13:26:31.670Z,5.68
2022-11-29T13:28:58.411Z,5.66
2022-11-29T13:31:25.562Z,5.83
2022-11-29T13:34:10.363Z,5.49
2022-11-29T13:36:42.684Z,5.60
2022-11-29T13:39:27.604Z,5.55
2022-11-29T13:41:59.423Z,5.51
2022-11-29T13:44:26.858Z,5.49
2022-11-29T13:47:04.110Z,5.46
2022-11-29T13:49:49.761Z,5.58
2022-11-29T13:52:42.435Z,5.61
2022-11-29T13:55:11.984Z,5.58
2022-11-29T13:58:15.033Z,5.39
2022-11-29T14:00:45.549Z,5.35
2022-11-29T14:03:29.021Z,5.36
2022-11-29T14:06:01.519Z,5.45
2022-11-29T14:09:01.946Z,5.53
2022-11-29T14:11:33.873Z,5.44
2022-11-29T14:14:04.798Z,5.49
2022-11-29T14:16:43.476Z,5.51
2022-11-29T14:19:10.862Z,5.54
2022-11-29T14:21:56.189Z,5.47
2022-11-29T14:24:39.055Z,5.56
2022-11-29T14:27:14.422Z,5.48
2022-11-29T14:29:53.928Z,5.30
2022-11-29T14:32:24.715Z,5.35
2022-11-29T14:34:55.231Z,5.32
2022-11-29T14:37:28.710Z,5.35
2022-11-29T14:39:58.489Z,5.37
2022-11-29T14:42:26.217Z,5.31
2022-11-29T14:44:54.391Z,5.34
2022-11-29T14:47:38.787Z,5.31
2022-11-29T14:50:08.868Z,5.32
2022-11-29T14:52:51.558Z,5.37
2022-11-29T14:55:17.922Z,5.21
2022-11-29T14:57:49.311Z,5.36
2022-11-29T15:00:15.766Z,5.25
2022-11-29T15:03:03.534Z,5.39
2022-11-29T15:05:38.071Z,5.35
2022-11-29T15:08:07.842Z,5.35
2022-11-29T15:10:37.329Z,5.33
2022-11-29T15:13:04.090Z,5.39
2022-11-29T15:15:50.874Z,5.33
2022-11-29T15:18:23.493Z,5.25
2022-11-29T15:21:07.325Z,5.28
2022-11-29T15:23:41.439Z,5.30
2022-11-29T15:26:14.494Z,5.30
2022-11-29T15:28:40.983Z,5.37
2022-11-29T15:31:09.599Z,5.30
2022-11-29T15:33:37.352Z,5.30
2022-11-29T15:36:16.104Z,5.29
2022-11-29T15:38:48.708Z,5.29
2022-11-29T15:41:21.400Z,5.28
2022-11-29T15:43:56.880Z,5.31
2022-11-29T15:46:27.392Z,5.24
2022-11-29T15:48:54.150Z,5.25
2022-11-29T15:51:31.006Z,5.22
2022-11-29T15:54:13.281Z,5.21
2022-11-29T15:56:51.923Z,5.17
2022-11-29T15:59:24.489Z,4.99
2022-11-29T16:01:52.374Z,5.22
2022-11-29T16:04:27.340Z,5.21
2022-11-29T16:06:55.324Z,5.27
2022-11-29T16:09:25.207Z,5.29
2022-11-29T16:11:52.877Z,5.27
2022-11-29T16:14:25.014Z,5.29
2022-11-29T16:16:53.551Z,5.33
2022-11-29T16:19:23.041Z,5.33
2022-11-29T16:22:08.775Z,5.34
2022-11-29T16:24:36.669Z,5.33
2022-11-29T16:27:03.482Z,5.25
2022-11-29T16:29:31.182Z,5.23
2022-11-29T16:31:57.813Z,5.21
2022-11-29T16:34:24.197Z,5.30
2022-11-29T16:37:04.178Z,5.33
2022-11-29T16:39:31.448Z,5.30
2022-11-29T16:42:25.831Z,5.25
2022-11-29T16:45:02.956Z,5.36
2022-11-29T16:47:31.001Z,5.32
2022-11-29T16:50:13.802Z,5.29
2022-11-29T16:52:40.322Z,5.35
2022-11-29T16:55:12.826Z,5.34
2022-11-29T16:57:40.602Z,5.35
2022-11-29T17:00:34.339Z,5.22
2022-11-29T17:03:01.737Z,5.27
2022-11-29T17:05:28.252Z,5.25
2022-11-29T17:07:54.958Z,5.18
2022-11-29T17:10:25.087Z,5.16
2022-11-29T17:12:51.474Z,5.15
2022-11-29T17:15:17.865Z,5.13
2022-11-29T17:17:44.234Z,5.23
2022-11-29T17:20:11.363Z,5.24
2022-11-29T17:22:37.684Z,5.18
2022-11-29T17:25:04.319Z,5.20
2022-11-29T17:27:32.015Z,5.11
2022-11-29T17:29:58.556Z,5.05
2022-11-29T17:32:26.985Z,5.13
2022-11-29T17:34:54.633Z,5.11
2022-11-29T17:37:21.008Z,5.04
2022-11-29T17:39:49.010Z,5.12
2022-11-29T17:42:15.537Z,5.13
2022-11-29T17:44:42.048Z,4.98
2022-11-29T17:47:11.402Z,5.14
2022-11-29T17:49:46.109Z,4.99
2022-11-29T17:52:12.819Z,5.11
2022-11-29T17:54:39.358Z,5.04
2022-11-29T17:57:05.948Z,5.10
2022-11-29T17:59:32.269Z,5.11
2022-11-29T18:01:58.713Z,5.12
2022-11-29T18:04:25.218Z,5.14
2022-11-29T18:06:51.583Z,5.08
2022-11-29T18:09:18.664Z,5.01
2022-11-29T18:11:49.661Z,4.90
2022-11-29T18:14:20.954Z,4.90
2022-11-29T18:16:47.570Z,4.94
2022-11-29T18:19:15.883Z,4.98
2022-11-29T18:21:43.313Z,4.88
2022-11-29T18:24:09.996Z,4.79
2022-11-29T18:26:37.018Z,4.78
2022-11-29T18:29:05.420Z,4.68
2022-11-29T18:31:32.930Z,4.73
2022-11-29T18:34:00.365Z,4.69
2022-11-29T18:36:31.824Z,4.75
2022-11-29T18:38:59.758Z,4.61
2022-11-29T18:41:28.144Z,4.65
2022-11-29T18:44:02.089Z,4.50
2022-11-29T18:46:32.818Z,4.64
2022-11-29T18:49:03.235Z,4.70
2022-11-29T18:51:30.032Z,4.65
2022-11-29T18:53:56.984Z,4.58
2022-11-29T18:56:24.262Z,4.61
2022-11-29T18:58:58.665Z,4.55
2022-11-29T19:01:27.489Z,4.50
2022-11-29T19:03:55.265Z,4.59
2022-11-29T19:06:31.706Z,4.46
2022-11-29T19:09:06.621Z,4.55
2022-11-29T19:11:33.411Z,4.58
2022-11-29T19:14:01.149Z,4.62
2022-11-29T19:16:28.675Z,4.61
2022-11-29T19:18:56.511Z,4.59
2022-11-29T19:21:23.698Z,4.44
2022-11-29T19:23:54.301Z,4.37
2022-11-29T19:26:21.478Z,4.32
2022-11-29T19:28:48.132Z,4.42
2022-11-29T19:31:15.848Z,4.25
2022-11-29T19:33:44.682Z,4.38
2022-11-29T19:36:15.045Z,4.37
2022-11-29T19:38:47.577Z,4.29
2022-11-29T19:41:24.469Z,4.31
2022-11-29T19:43:51.405Z,4.16
2022-11-29T19:46:17.754Z,4.19
2022-11-29T19:48:47.310Z,4.10
2022-11-29T19:51:15.618Z,4.19
2022-11-29T19:53:43.185Z,4.32
2022-11-29T19:56:14.048Z,4.23
2022-11-29T19:58:40.418Z,4.03
2022-11-29T20:01:08.083Z,4.02
2022-11-29T20:03:34.895Z,4.01
2022-11-29T20:06:01.722Z,4.23
2022-11-29T20:08:28.473Z,4.04
2022-11-29T20:10:54.960Z,3.94
2022-11-29T20:13:21.592Z,4.04
2022-11-29T20:15:47.978Z,4.05
2022-11-29T20:18:14.480Z,4.05
2022-11-29T20:20:40.862Z,4.09
2022-11-29T20:23:09.334Z,4.09
2022-11-29T20:25:36.405Z,4.07
2022-11-29T20:28:04.095Z,4.07
2022-11-29T20:30:30.588Z,4.12
2022-11-29T20:32:56.985Z,4.16
2022-11-29T20:35:23.587Z,4.14
2022-11-29T20:38:08.444Z,4.13
2022-11-29T20:40:59.522Z,4.09
2022-11-29T20:43:37.389Z,3.91
2022-11-29T20:46:03.886Z,3.89
2022-11-29T20:48:30.405Z,3.91
2022-11-29T20:50:58.393Z,3.99
2022-11-29T20:53:31.331Z,3.94
2022-11-29T20:55:57.964Z,4.01
2022-11-29T20:58:26.506Z,3.99
2022-11-29T21:00:53.977Z,3.98
2022-11-29T21:03:20.748Z,3.78
2022-11-29T21:05:47.600Z,3.87
2022-11-29T21:08:15.508Z,3.83
2022-11-29T21:10:41.841Z,3.89
2022-11-29T21:13:09.918Z,3.89
2022-11-29T21:15:37.591Z,4.04
2022-11-29T21:18:04.227Z,3.88
2022-11-29T21:20:30.681Z,3.94
2022-11-29T21:23:15.398Z,4.01
2022-11-29T21:25:43.677Z,3.98
2022-11-29T21:28:12.359Z,4.00
2022-11-29T21:30:39.866Z,4.04
2022-11-29T21:33:06.430Z,4.06
2022-11-29T21:35:32.831Z,4.06
2022-11-29T21:38:00.809Z,3.98
2022-11-29T21:40:27.696Z,3.97
2022-11-29T21:42:54.019Z,3.80
2022-11-29T21:45:20.332Z,3.84
2022-11-29T21:47:46.705Z,3.92
2022-11-29T21:50:13.593Z,3.91
2022-11-29T21:52:40.083Z,3.90
2022-11-29T21:55:06.835Z,3.94
2022-11-29T21:57:33.160Z,3.94
2022-11-29T21:59:59.473Z,3.98
2022-11-29T22:02:25.848Z,3.99
2022-11-29T22:04:52.258Z,3.88
2022-11-29T22:07:18.963Z,3.87
2022-11-29T22:09:45.317Z,3.84
2022-11-29T22:12:32.638Z,3.80
2022-11-29T22:14:58.168Z,3.80
2022-11-29T22:17:25.594Z,3.83
2022-11-29T22:19:51.931Z,3.81
2022-11-29T22:22:18.351Z,3.74
2022-11-29T22:24:44.851Z,3.68
2022-11-29T22:27:11.894Z,3.76
2022-11-29T22:29:38.199Z,3.74
2022-11-29T22:32:04.676Z,3.87
2022-11-29T22:34:32.139Z,3.90
2022-11-29T22:36:58.461Z,3.96
2022-11-29T22:39:24.888Z,3.94
2022-11-29T22:41:54.576Z,3.95
2022-11-29T22:44:21.536Z,3.87
2022-11-29T22:46:48.064Z,3.86
2022-11-29T22:49:14.463Z,4.01
2022-11-29T22:51:40.907Z,3.87
2022-11-29T22:54:08.729Z,3.78
2022-11-29T22:56:36.759Z,3.78
2022-11-29T22:59:03.720Z,3.72
2022-11-29T23:01:33.379Z,3.81
2022-11-29T23:04:00.514Z,3.82
2022-11-29T23:06:26.857Z,3.86
2022-11-29T23:08:54.410Z,3.97
2022-11-29T23:11:22.452Z,3.83
2022-11-29T23:13:48.854Z,3.81
2022-11-29T23:16:17.175Z,3.86
2022-11-29T23:18:45.567Z,3.82
2022-11-29T23:21:16.223Z,3.68
2022-11-29T23:23:42.929Z,3.86
2022-11-29T23:26:16.002Z,3.97
2022-11-29T23:28:42.323Z,3.92
2022-11-29T23:31:10.907Z,3.96
2022-11-29T23:33:37.619Z,3.97
2022-11-29T23:36:05.606Z,3.92
2022-11-29T23:38:32.011Z,3.92
2022-11-29T23:40:58.359Z,4.01
2022-11-29T23:43:24.975Z,4.03
2022-11-29T23:45:51.321Z,4.02
2022-11-29T23:48:17.878Z,4.02
2022-11-29T23:50:44.257Z,4.01
2022-11-29T23:53:14.862Z,3.91
2022-11-29T23:55:42.310Z,3.92
2022-11-29T23:58:09.438Z,4.00
